createdAt,value
2022-11-22T00:00:43.259Z,3.70
2022-11-22T00:03:10.198Z,4.37
2022-11-22T00:05:37.143Z,3.70
2022-11-22T00:08:04.502Z,3.70
2022-11-22T00:10:31.347Z,4.27
2022-11-22T00:12:58.968Z,3.57
2022-11-22T00:15:25.726Z,4.13
2022-11-22T00:17:52.556Z,3.80
2022-11-22T00:20:19.193Z,4.30
2022-11-22T00:22:45.857Z,4.43
2022-11-22T00:25:13.257Z,4.17
2022-11-22T00:27:40.074Z,3.77
2022-11-22T00:30:07.813Z,3.23
2022-11-22T00:32:34.651Z,3.47
2022-11-22T00:35:01.409Z,3.63
2022-11-22T00:37:28.336Z,4.53
2022-11-22T00:39:54.974Z,3.73
2022-11-22T00:42:21.602Z,4.87
2022-11-22T00:44:48.218Z,4.13
2022-11-22T00:47:14.943Z,3.97
2022-11-22T00:49:41.732Z,4.83
2022-11-22T00:52:08.409Z,3.90
2022-11-22T00:54:35.044Z,4.60
2022-11-22T00:57:01.780Z,4.13
2022-11-22T00:59:28.753Z,4.67
2022-11-22T01:01:55.621Z,4.97
2022-11-22T01:04:22.433Z,4.60
2022-11-22T01:06:49.286Z,5.80
2022-11-22T01:09:21.991Z,5.00
2022-11-22T01:11:49.520Z,4.73
2022-11-22T01:14:17.670Z,5.90
2022-11-22T01:16:44.714Z,5.03
2022-11-22T01:19:11.566Z,5.00
2022-11-22T01:21:38.433Z,4.40
2022-11-22T01:24:05.774Z,4.53
2022-11-22T01:26:33.468Z,4.17
2022-11-22T01:29:00.344Z,5.40
2022-11-22T01:31:27.075Z,5.00
2022-11-22T01:33:53.692Z,4.60
2022-11-22T01:36:20.481Z,4.13
2022-11-22T01:38:47.227Z,5.47
2022-11-22T01:41:14.371Z,5.23
2022-11-22T01:43:41.069Z,5.40
2022-11-22T01:46:13.440Z,4.87
2022-11-22T01:49:09.392Z,5.50
2022-11-22T01:51:40.345Z,5.60
2022-11-22T01:54:12.865Z,5.67
2022-11-22T01:56:41.836Z,5.40
2022-11-22T01:59:12.614Z,5.37
2022-11-22T02:01:39.563Z,6.40
2022-11-22T02:04:09.699Z,5.20
2022-11-22T02:06:42.127Z,5.70
2022-11-22T02:09:13.091Z,5.00
2022-11-22T02:11:48.164Z,5.37
2022-11-22T02:14:16.656Z,4.50
2022-11-22T02:16:45.373Z,5.70
2022-11-22T02:19:37.092Z,5.97
2022-11-22T02:22:28.472Z,5.10
2022-11-22T02:24:55.248Z,5.00
2022-11-22T02:27:22.246Z,4.80
2022-11-22T02:29:49.017Z,5.40
2022-11-22T02:32:15.706Z,5.20
2022-11-22T02:34:47.827Z,5.23
2022-11-22T02:37:19.073Z,4.50
2022-11-22T02:39:48.096Z,5.57
2022-11-22T02:42:14.952Z,4.67
2022-11-22T02:44:42.259Z,4.67
2022-11-22T02:47:09.003Z,5.80
2022-11-22T02:49:35.696Z,6.30
2022-11-22T02:52:02.338Z,5.73
2022-11-22T02:54:29.228Z,5.10
2022-11-22T02:56:55.990Z,5.10
2022-11-22T02:59:22.657Z,5.40
2022-11-22T03:01:49.309Z,5.00
2022-11-22T03:04:24.835Z,4.40
2022-11-22T03:06:57.070Z,4.70
2022-11-22T03:09:28.053Z,4.63
2022-11-22T03:11:55.053Z,5.33
2022-11-22T03:14:22.241Z,5.40
2022-11-22T03:16:49.056Z,4.07
2022-11-22T03:19:15.828Z,5.00
2022-11-22T03:21:43.165Z,4.60
2022-11-22T03:24:11.004Z,4.37
2022-11-22T03:26:38.032Z,5.53
2022-11-22T03:29:04.744Z,4.77
2022-11-22T03:31:31.445Z,5.87
2022-11-22T03:33:58.272Z,4.63
2022-11-22T03:36:25.043Z,5.40
2022-11-22T03:38:52.031Z,5.20
2022-11-22T03:41:18.780Z,5.27
2022-11-22T03:43:45.420Z,4.77
2022-11-22T03:46:17.019Z,4.63
2022-11-22T03:48:43.671Z,4.70
2022-11-22T03:51:10.360Z,4.67
2022-11-22T03:53:37.021Z,4.60
2022-11-22T03:56:04.445Z,4.00
2022-11-22T03:58:31.628Z,4.67
2022-11-22T04:00:58.633Z,5.60
2022-11-22T04:03:25.886Z,5.30
2022-11-22T04:05:52.792Z,4.40
2022-11-22T04:08:19.564Z,4.43
2022-11-22T04:10:47.952Z,4.60
2022-11-22T04:13:15.274Z,4.00
2022-11-22T04:15:42.051Z,4.20
2022-11-22T04:18:13.210Z,3.73
2022-11-22T04:20:59.049Z,4.90
2022-11-22T04:23:33.586Z,4.67
2022-11-22T04:26:01.164Z,3.83
2022-11-22T04:28:47.010Z,4.20
2022-11-22T04:31:33.252Z,5.10
2022-11-22T04:33:59.972Z,4.33
2022-11-22T04:36:26.670Z,4.13
2022-11-22T04:38:53.387Z,4.47
2022-11-22T04:41:20.084Z,4.50
2022-11-22T04:44:05.086Z,4.77
2022-11-22T04:46:31.874Z,3.93
2022-11-22T04:48:58.527Z,4.30
2022-11-22T04:51:43.955Z,4.20
2022-11-22T04:54:11.080Z,4.87
2022-11-22T04:56:37.711Z,4.00
2022-11-22T04:59:04.642Z,4.87
2022-11-22T05:01:31.422Z,4.50
2022-11-22T05:03:58.352Z,4.23
2022-11-22T05:06:25.159Z,5.67
2022-11-22T05:08:51.814Z,4.83
2022-11-22T05:11:18.626Z,5.10
2022-11-22T05:13:45.539Z,4.60
2022-11-22T05:16:14.092Z,5.73
2022-11-22T05:18:41.255Z,4.40
2022-11-22T05:21:13.607Z,4.23
2022-11-22T05:23:56.066Z,4.53
2022-11-22T05:26:24.918Z,4.20
2022-11-22T05:28:52.113Z,4.40
2022-11-22T05:31:24.063Z,4.87
2022-11-22T05:33:53.082Z,4.90
2022-11-22T05:36:20.636Z,4.73
2022-11-22T05:38:48.167Z,3.83
2022-11-22T05:41:16.461Z,4.87
2022-11-22T05:43:43.690Z,4.13
2022-11-22T05:46:23.782Z,4.50
2022-11-22T05:48:51.188Z,4.57
2022-11-22T05:51:20.341Z,4.30
2022-11-22T05:53:47.518Z,5.20
2022-11-22T05:56:17.182Z,4.90
2022-11-22T05:58:44.102Z,4.57
2022-11-22T06:01:13.459Z,5.07
2022-11-22T06:03:40.336Z,5.13
2022-11-22T06:06:08.149Z,6.57
2022-11-22T06:08:37.312Z,5.77
2022-11-22T06:11:09.286Z,5.00
2022-11-22T06:13:37.385Z,5.60
2022-11-22T06:16:05.888Z,6.40
2022-11-22T06:18:33.049Z,5.10
2022-11-22T06:21:01.429Z,4.33
2022-11-22T06:23:29.627Z,4.70
2022-11-22T06:25:58.077Z,4.90
2022-11-22T06:28:25.471Z,6.00
2022-11-22T06:30:52.107Z,4.70
2022-11-22T06:33:18.785Z,5.03
2022-11-22T06:35:45.573Z,5.10
2022-11-22T06:38:12.192Z,5.53
2022-11-22T06:40:39.147Z,4.47
2022-11-22T06:43:05.771Z,5.90
2022-11-22T06:45:32.399Z,4.80
2022-11-22T06:47:59.295Z,6.10
2022-11-22T06:50:25.912Z,6.60
2022-11-22T06:52:52.777Z,7.00
2022-11-22T06:55:48.448Z,5.40
2022-11-22T06:58:06.289Z,4.80
2022-11-22T07:00:33.564Z,5.40
2022-11-22T07:03:00.175Z,5.83
2022-11-22T07:05:27.058Z,6.00
2022-11-22T07:07:56.715Z,6.47
2022-11-22T07:10:25.917Z,5.87
2022-11-22T07:12:52.888Z,6.47
2022-11-22T07:15:19.554Z,5.83
2022-11-22T07:17:46.225Z,5.23
2022-11-22T07:20:12.912Z,5.00
2022-11-22T07:22:39.617Z,5.80
2022-11-22T07:25:06.728Z,5.57
2022-11-22T07:27:33.336Z,4.77
2022-11-22T07:30:00.647Z,5.73
2022-11-22T07:32:27.235Z,5.70
2022-11-22T07:34:53.871Z,5.00
2022-11-22T07:37:20.538Z,4.93
2022-11-22T07:39:47.314Z,4.90
2022-11-22T07:42:13.994Z,5.67
2022-11-22T07:44:40.550Z,5.90
2022-11-22T07:47:07.257Z,5.10
2022-11-22T07:49:34.072Z,5.60
2022-11-22T07:52:00.725Z,5.70
2022-11-22T07:54:27.599Z,6.10
2022-11-22T07:56:54.180Z,4.90
2022-11-22T07:59:20.935Z,4.40
2022-11-22T08:01:47.669Z,5.13
2022-11-22T08:04:14.843Z,6.40
2022-11-22T08:06:41.513Z,5.50
2022-11-22T08:09:08.154Z,5.73
2022-11-22T08:11:35.093Z,5.23
2022-11-22T08:14:01.731Z,5.47
2022-11-22T08:16:28.485Z,4.80
2022-11-22T08:18:55.305Z,4.70
2022-11-22T08:21:22.050Z,4.53
2022-11-22T08:23:48.855Z,5.10
2022-11-22T08:26:17.102Z,6.03
2022-11-22T08:28:44.259Z,5.33
2022-11-22T08:31:18.089Z,5.00
2022-11-22T08:33:44.976Z,4.50
2022-11-22T08:36:11.823Z,5.80
2022-11-22T08:38:38.725Z,4.53
2022-11-22T08:41:08.788Z,4.67
2022-11-22T08:43:35.532Z,4.70
2022-11-22T08:46:02.472Z,6.87
2022-11-22T08:48:31.774Z,5.00
2022-11-22T08:51:01.490Z,4.60
2022-11-22T08:53:29.876Z,4.57
2022-11-22T08:55:59.028Z,5.17
2022-11-22T08:58:25.653Z,4.60
2022-11-22T09:00:52.448Z,5.23
2022-11-22T09:03:19.036Z,4.60
2022-11-22T09:08:36.375Z,5.13
2022-11-22T09:11:07.445Z,5.20
2022-11-22T09:13:34.537Z,4.10
2022-11-22T09:16:03.103Z,5.30
2022-11-22T09:18:29.825Z,4.80
2022-11-22T09:21:00.934Z,6.13
2022-11-22T09:23:27.919Z,4.70
2022-11-22T09:26:06.332Z,4.27
2022-11-22T09:28:33.454Z,6.23
2022-11-22T09:31:11.826Z,4.33
2022-11-22T09:33:40.383Z,5.93
2022-11-22T09:36:10.047Z,4.87
2022-11-22T09:38:37.931Z,4.20
2022-11-22T09:41:36.877Z,4.50
2022-11-22T09:44:30.175Z,4.43
2022-11-22T09:47:17.137Z,3.77
2022-11-22T09:50:01.286Z,3.50
2022-11-22T09:52:51.167Z,3.57
2022-11-22T09:55:38.268Z,5.07
2022-11-22T09:58:10.784Z,4.30
2022-11-22T10:00:37.688Z,3.53
2022-11-22T10:03:19.188Z,3.83
2022-11-22T10:05:58.175Z,3.57
2022-11-22T10:08:27.535Z,3.50
2022-11-22T10:10:58.305Z,3.23
2022-11-22T10:13:34.868Z,3.20
2022-11-22T10:16:25.734Z,3.50
2022-11-22T10:19:11.105Z,3.53
2022-11-22T10:21:37.886Z,2.83
2022-11-22T10:24:04.932Z,3.00
2022-11-22T10:26:34.299Z,3.50
2022-11-22T10:29:12.979Z,3.23
2022-11-22T10:32:04.652Z,2.37
2022-11-22T10:35:13.783Z,3.50
2022-11-22T10:38:13.371Z,2.80
2022-11-22T10:40:50.438Z,2.40
2022-11-22T10:43:32.484Z,3.00
2022-11-22T10:46:23.790Z,2.50
2022-11-22T10:49:29.139Z,3.10
2022-11-22T10:52:15.969Z,2.80
2022-11-22T10:54:52.324Z,2.90
2022-11-22T10:57:41.880Z,2.70
2022-11-22T11:00:25.797Z,2.93
2022-11-22T11:03:15.512Z,2.70
2022-11-22T11:06:43.493Z,2.97
2022-11-22T11:12:16.045Z,2.63
2022-11-22T11:14:49.846Z,2.90
2022-11-22T11:17:20.702Z,2.37
2022-11-22T11:19:49.564Z,2.90
2022-11-22T11:22:42.742Z,2.83
2022-11-22T11:25:30.522Z,2.53
2022-11-22T11:28:07.020Z,2.40
2022-11-22T11:30:43.056Z,3.17
2022-11-22T11:33:20.494Z,3.00
2022-11-22T11:35:47.533Z,3.43
2022-11-22T11:38:30.000Z,2.87
2022-11-22T11:40:56.856Z,2.40
2022-11-22T11:43:25.189Z,2.40
2022-11-22T11:45:52.148Z,2.90
2022-11-22T11:48:38.286Z,3.20
2022-11-22T11:51:08.967Z,3.03
2022-11-22T11:53:35.992Z,2.37
2022-11-22T11:56:27.775Z,2.97
2022-11-22T11:58:56.576Z,2.73
2022-11-22T12:01:24.969Z,2.70
2022-11-22T12:03:55.411Z,3.37
2022-11-22T12:06:29.278Z,2.90
2022-11-22T12:08:57.883Z,2.50
2022-11-22T12:11:34.346Z,3.00
2022-11-22T12:14:20.626Z,2.77
2022-11-22T12:16:50.268Z,2.47
2022-11-22T12:19:32.422Z,2.90
2022-11-22T12:22:29.408Z,2.63
2022-11-22T12:25:34.394Z,2.60
2022-11-22T12:28:18.544Z,2.97
2022-11-22T12:30:52.360Z,2.50
2022-11-22T12:33:50.342Z,2.50
2022-11-22T12:36:33.581Z,3.00
2022-11-22T12:39:02.883Z,2.30
2022-11-22T12:41:32.719Z,2.97
2022-11-22T12:44:02.798Z,2.50
2022-11-22T12:46:39.632Z,3.00
2022-11-22T12:49:37.463Z,2.67
2022-11-22T12:52:31.837Z,2.93
2022-11-22T12:55:21.772Z,2.43
2022-11-22T12:57:56.816Z,2.77
2022-11-22T13:00:26.726Z,2.90
2022-11-22T13:03:03.306Z,3.07
2022-11-22T13:05:52.915Z,3.13
2022-11-22T13:08:22.753Z,2.57
2022-11-22T13:10:58.819Z,2.80
2022-11-22T13:13:39.170Z,2.60
2022-11-22T13:16:11.331Z,2.73
2022-11-22T13:18:43.092Z,2.50
2022-11-22T13:21:45.464Z,2.70
2022-11-22T13:24:34.808Z,3.00
2022-11-22T13:27:22.366Z,2.90
2022-11-22T13:29:52.792Z,2.57
2022-11-22T13:32:23.195Z,2.60
2022-11-22T13:35:13.764Z,2.50
2022-11-22T13:37:55.645Z,2.40
2022-11-22T13:40:27.465Z,2.47
2022-11-22T13:43:16.682Z,2.30
2022-11-22T13:45:55.407Z,2.00
2022-11-22T13:48:42.289Z,2.70
2022-11-22T13:51:14.793Z,2.40
2022-11-22T13:53:44.147Z,2.60
2022-11-22T13:56:16.830Z,2.73
2022-11-22T13:58:51.897Z,3.13
2022-11-22T14:01:34.327Z,2.47
2022-11-22T14:04:16.722Z,2.53
2022-11-22T14:07:00.215Z,2.03
2022-11-22T14:09:53.680Z,2.43
2022-11-22T14:12:54.016Z,2.60
2022-11-22T14:15:41.876Z,2.20
2022-11-22T14:18:41.020Z,3.03
2022-11-22T14:21:15.020Z,2.47
2022-11-22T14:24:06.057Z,2.77
2022-11-22T14:26:44.620Z,2.07
2022-11-22T14:29:17.279Z,2.53
2022-11-22T14:31:52.996Z,2.20
2022-11-22T14:34:27.631Z,2.10
2022-11-22T14:37:12.702Z,2.50
2022-11-22T14:39:45.289Z,2.43
2022-11-22T14:42:37.574Z,2.30
2022-11-22T14:45:10.386Z,2.17
2022-11-22T14:47:52.356Z,2.27
2022-11-22T14:50:37.514Z,2.30
2022-11-22T14:53:16.664Z,2.57
2022-11-22T14:55:43.956Z,2.43
2022-11-22T14:58:15.500Z,2.30
2022-11-22T15:01:00.401Z,2.70
2022-11-22T15:09:13.289Z,2.50
2022-11-22T15:09:17.679Z,3.00
2022-11-22T15:09:53.397Z,2.17
2022-11-22T15:12:59.531Z,2.30
2022-11-22T15:59:42.975Z,2.40
2022-11-22T16:02:18.046Z,3.53
2022-11-22T16:06:05.952Z,3.60
2022-11-22T16:07:45.466Z,3.67
2022-11-22T16:10:44.694Z,3.70
2022-11-22T16:13:13.130Z,3.13
2022-11-22T16:15:40.499Z,3.70
2022-11-22T16:18:17.727Z,4.60
2022-11-22T16:21:03.514Z,4.80
2022-11-22T16:23:33.313Z,2.47
2022-11-22T16:26:13.253Z,2.40
2022-11-22T16:28:40.184Z,3.77
2022-11-22T16:31:17.651Z,3.47
2022-11-22T16:33:45.256Z,2.53
2022-11-22T16:36:14.139Z,4.30
2022-11-22T16:38:41.523Z,2.67
2022-11-22T16:41:14.146Z,2.50
2022-11-22T16:43:40.760Z,2.70
2022-11-22T16:46:07.472Z,2.63
2022-11-22T16:48:34.183Z,3.00
2022-11-22T16:51:06.769Z,3.03
2022-11-22T16:53:48.509Z,2.43
2022-11-22T16:56:22.140Z,2.83
2022-11-22T16:58:49.882Z,2.47
2022-11-22T17:01:22.518Z,2.70
2022-11-22T17:03:51.871Z,3.27
2022-11-22T17:06:25.022Z,3.33
2022-11-22T17:08:54.546Z,3.37
2022-11-22T17:11:24.536Z,3.00
2022-11-22T17:13:51.929Z,3.47
2022-11-22T17:16:18.693Z,3.47
2022-11-22T17:18:46.700Z,3.10
2022-11-22T17:21:25.649Z,3.93
2022-11-22T17:23:56.004Z,4.47
2022-11-22T17:26:23.368Z,3.80
2022-11-22T17:28:50.233Z,4.00
2022-11-22T17:31:18.991Z,3.83
2022-11-22T17:33:53.015Z,4.50
2022-11-22T17:36:34.376Z,4.03
2022-11-22T17:39:04.095Z,4.70
2022-11-22T17:41:31.771Z,4.60
2022-11-22T17:43:58.371Z,4.10
2022-11-22T17:46:26.084Z,5.53
2022-11-22T17:48:54.517Z,4.93
2022-11-22T17:51:21.879Z,5.03
2022-11-22T17:53:49.244Z,5.30
2022-11-22T17:56:16.216Z,6.47
2022-11-22T17:58:43.324Z,5.60
2022-11-22T18:01:13.250Z,6.37
2022-11-22T18:03:41.174Z,6.23
2022-11-22T18:06:09.433Z,5.33
2022-11-22T18:08:36.486Z,7.70
2022-11-22T18:11:04.632Z,6.17
2022-11-22T18:13:34.871Z,5.07
2022-11-22T18:16:04.070Z,5.03
2022-11-22T18:21:19.023Z,5.80
2022-11-22T18:23:45.652Z,5.00
2022-11-22T18:29:35.494Z,9.03
2022-11-22T18:31:54.311Z,6.50
2022-11-22T18:34:22.449Z,5.10
2022-11-22T18:39:39.282Z,5.20
2022-11-22T18:42:09.775Z,4.53
2022-11-22T18:44:36.388Z,5.30
2022-11-22T18:47:03.423Z,5.30
2022-11-22T18:49:30.736Z,4.37
2022-11-22T18:51:57.840Z,5.03
2022-11-22T18:54:24.691Z,5.20
2022-11-22T18:56:52.147Z,5.43
2022-11-22T18:59:18.757Z,6.60
2022-11-22T19:01:45.659Z,5.20
2022-11-22T19:04:14.177Z,7.70
2022-11-22T19:06:42.033Z,7.90
2022-11-22T19:09:09.266Z,8.80
2022-11-22T19:11:36.095Z,6.80
2022-11-22T19:14:03.281Z,5.70
2022-11-22T19:16:30.591Z,5.63
2022-11-22T19:18:58.509Z,5.83
2022-11-22T19:21:28.868Z,6.23
2022-11-22T19:23:56.538Z,5.17
2022-11-22T19:26:25.867Z,8.67
2022-11-22T19:28:55.500Z,6.03
2022-11-22T19:31:25.674Z,5.67
2022-11-22T19:33:52.441Z,5.80
2022-11-22T19:36:21.699Z,5.70
2022-11-22T19:38:48.868Z,5.70
2022-11-22T19:41:20.877Z,5.00
2022-11-22T19:43:49.093Z,4.73
2022-11-22T19:46:16.400Z,5.47
2022-11-22T19:48:47.199Z,5.40
2022-11-22T19:51:15.404Z,4.83
2022-11-22T19:53:42.369Z,4.53
2022-11-22T19:56:15.089Z,4.37
2022-11-22T19:58:42.948Z,5.23
2022-11-22T20:01:14.559Z,4.43
2022-11-22T20:03:43.017Z,4.57
2022-11-22T20:06:12.343Z,4.07
2022-11-22T20:08:39.434Z,4.83
2022-11-22T20:11:08.644Z,4.47
2022-11-22T20:13:37.208Z,5.70
2022-11-22T20:16:08.067Z,4.83
2022-11-22T20:18:34.949Z,4.13
2022-11-22T20:21:02.540Z,5.13
2022-11-22T20:23:30.396Z,4.40
2022-11-22T20:26:09.900Z,4.37
2022-11-22T20:28:40.988Z,5.53
2022-11-22T20:31:15.699Z,4.90
2022-11-22T20:33:45.668Z,4.03
2022-11-22T20:36:15.149Z,3.83
2022-11-22T20:38:43.489Z,4.90
2022-11-22T20:41:12.326Z,4.37
2022-11-22T20:43:39.037Z,4.13
2022-11-22T20:46:11.186Z,4.50
2022-11-22T20:48:39.569Z,5.07
2022-11-22T20:51:12.834Z,5.20
2022-11-22T20:53:39.794Z,5.20
2022-11-22T20:56:06.774Z,5.00
2022-11-22T20:58:33.751Z,4.30
2022-11-22T21:01:06.163Z,4.80
2022-11-22T21:03:33.704Z,3.83
2022-11-22T21:06:01.871Z,4.27
2022-11-22T21:08:28.678Z,4.13
2022-11-22T21:11:07.103Z,4.20
2022-11-22T21:13:34.149Z,4.43
2022-11-22T21:16:08.817Z,3.97
2022-11-22T21:19:01.542Z,4.43
2022-11-22T21:21:29.293Z,4.37
2022-11-22T21:23:57.812Z,4.80
2022-11-22T21:26:25.703Z,4.63
2022-11-22T21:28:53.070Z,5.33
2022-11-22T21:31:21.542Z,4.20
2022-11-22T21:33:50.030Z,5.00
2022-11-22T21:36:17.470Z,4.40
2022-11-22T21:38:44.201Z,4.97
2022-11-22T21:41:38.802Z,4.93
2022-11-22T21:44:03.333Z,4.47
2022-11-22T21:46:30.015Z,3.97
2022-11-22T21:48:56.970Z,4.17
2022-11-22T21:51:25.927Z,4.63
2022-11-22T21:53:59.932Z,4.00
2022-11-22T21:56:27.276Z,4.30
2022-11-22T21:58:54.362Z,3.53
2022-11-22T22:01:21.393Z,3.53
2022-11-22T22:03:48.191Z,4.40
2022-11-22T22:06:14.860Z,4.60
2022-11-22T22:08:41.633Z,4.07
2022-11-22T22:11:08.464Z,3.50
2022-11-22T22:13:35.331Z,4.40
2022-11-22T22:16:06.394Z,3.90
2022-11-22T22:18:35.669Z,3.67
2022-11-22T22:21:07.518Z,3.70
2022-11-22T22:23:36.176Z,4.40
2022-11-22T22:26:05.985Z,3.80
2022-11-22T22:28:34.341Z,4.30
2022-11-22T22:31:17.342Z,4.23
2022-11-22T22:33:45.806Z,4.80
2022-11-22T22:36:12.973Z,4.70
2022-11-22T22:38:40.760Z,3.80
2022-11-22T22:41:10.244Z,4.30
2022-11-22T22:43:39.800Z,4.30
2022-11-22T22:46:10.197Z,4.50
2022-11-22T22:48:37.039Z,4.13
2022-11-22T22:51:05.342Z,3.67
2022-11-22T22:53:32.096Z,4.30
2022-11-22T22:55:58.823Z,4.30
2022-11-22T22:58:25.516Z,3.70
2022-11-22T23:00:52.217Z,4.10
2022-11-22T23:03:18.982Z,4.20
2022-11-22T23:05:45.723Z,4.17
2022-11-22T23:08:13.046Z,4.17
2022-11-22T23:10:41.174Z,4.70
2022-11-22T23:13:07.891Z,4.33
2022-11-22T23:15:56.904Z,4.20
2022-11-22T23:18:21.192Z,4.00
2022-11-22T23:20:47.824Z,4.53
2022-11-22T23:23:14.420Z,4.70
2022-11-22T23:25:41.101Z,4.37
2022-11-22T23:28:07.835Z,4.00
2022-11-22T23:30:34.610Z,3.97
2022-11-22T23:33:01.472Z,3.50
2022-11-22T23:35:28.277Z,3.97
2022-11-22T23:37:55.662Z,4.47
2022-11-22T23:40:22.512Z,3.40
2022-11-22T23:42:49.140Z,3.50
2022-11-22T23:45:15.945Z,4.20
2022-11-22T23:47:42.587Z,3.20
2022-11-22T23:50:09.908Z,4.37
2022-11-22T23:52:36.620Z,4.27
2022-11-22T23:55:03.472Z,3.77
2022-11-22T23:57:30.304Z,3.63
2022-11-22T23:59:56.918Z,3.53
